Gallina — 9VGC4 — position and weather

sailwx.info

Track history (hours):
 
Tides and Currents Weather Stations Pressure Air Temp Water Temp Dewpoint Dewpoint Depression Visibility Wind Speed Wind Dir Waves Ship Positions

Gallina

Last reported at 2017-Nov-18 13:52 UTC. Time now 2017-Dec-11 02:26 UTC.
Position N 39°43' W 011°30'.
Warning: this ship's position is 22 days out of date.

Type: Ship (hazmat cat A). MMSI: 564646000.

Date/timePositionNaut miles runAvg speedWind from/ knotsBaromVisibWave heightAir tempDewpointWater temp
2017-Nov-18 13:52N 39°43' W 011°30'515.0
2017-Nov-18 13:30N 39°48' W 011°28'1915.2
2017-Nov-18 12:16N 40°06' W 011°21'414.7
2017-Nov-18 12:00N 40°10' W 011°20'714.9
2017-Nov-18 11:30N 40°17' W 011°17'1915.2
2017-Nov-18 10:13N 40°35' W 011°08'315.0
2017-Nov-18 10:00N 40°38' W 011°07'815.3
2017-Nov-18 09:30N 40°45' W 011°04'1214.8
2017-Nov-18 08:43N 40°57' W 010°60'314.8
2017-Nov-18 08:30N 40°60' W 010°58'814.9
2017-Nov-18 07:59N 41°07' W 010°56'714.9
2017-Nov-18 07:30N 41°14' W 010°53'2315.1
2017-Nov-18 06:00N 41°36' W 010°45'  
2017-Nov-13 02:00N 30°16' W 015°04'714.4
2017-Nov-13 01:30N 30°09' W 015°07'814.3
2017-Nov-13 00:55N 30°01' W 015°10'614.3
2017-Nov-13 00:30N 29°55' W 015°11'714.2
2017-Nov-13 00:01N 29°48' W 015°14'714.2
2017-Nov-12 23:31N 29°41' W 015°16'714.1
2017-Nov-12 23:01N 29°35' W 015°18'714.2
2017-Nov-12 22:31N 29°28' W 015°20'714.2
2017-Nov-12 22:01N 29°21' W 015°23'714.2
2017-Nov-12 21:30N 29°14' W 015°25'713.9
2017-Nov-12 21:00N 29°07' W 015°27'714.1
2017-Nov-12 20:30N 29°00' W 015°26'713.3
2017-Nov-12 20:00N 28°54' W 015°28'713.8
2017-Nov-12 19:30N 28°48' W 015°33'714.2
2017-Nov-12 19:00N 28°42' W 015°35'714.2
2017-Nov-12 18:30N 28°36' W 015°40'714.6
2017-Nov-12 18:00N 28°30' W 015°45'714.7
2017-Nov-12 17:30N 28°25' W 015°51'714.4
2017-Nov-12 17:00N 28°19' W 015°56'  
Track history (hours):
 
Tides and Currents Weather Stations Pressure Air Temp Water Temp Dewpoint Dewpoint Depression Visibility Wind Speed Wind Dir Waves Ship Positions

Gallina

Last reported at 2017-Nov-18 13:52 UTC. Time now 2017-Dec-11 02:26 UTC.
Position N 39°43' W 011°30'.
Warning: this ship's position is 22 days out of date.

Type: Ship (hazmat cat A). MMSI: 564646000.

Date/timePositionNaut miles runAvg speedWind from/ knotsBaromVisibWave heightAir tempDewpointWater temp
2017-Nov-18 13:52N 39°43' W 011°30'515.0
2017-Nov-18 13:30N 39°48' W 011°28'1915.2
2017-Nov-18 12:16N 40°06' W 011°21'414.7
2017-Nov-18 12:00N 40°10' W 011°20'714.9
2017-Nov-18 11:30N 40°17' W 011°17'1915.2
2017-Nov-18 10:13N 40°35' W 011°08'315.0
2017-Nov-18 10:00N 40°38' W 011°07'815.3
2017-Nov-18 09:30N 40°45' W 011°04'1214.8
2017-Nov-18 08:43N 40°57' W 010°60'314.8
2017-Nov-18 08:30N 40°60' W 010°58'814.9
2017-Nov-18 07:59N 41°07' W 010°56'714.9
2017-Nov-18 07:30N 41°14' W 010°53'2315.1
2017-Nov-18 06:00N 41°36' W 010°45'  
2017-Nov-13 02:00N 30°16' W 015°04'714.4
2017-Nov-13 01:30N 30°09' W 015°07'814.3
2017-Nov-13 00:55N 30°01' W 015°10'614.3
2017-Nov-13 00:30N 29°55' W 015°11'714.2
2017-Nov-13 00:01N 29°48' W 015°14'714.2
2017-Nov-12 23:31N 29°41' W 015°16'714.1
2017-Nov-12 23:01N 29°35' W 015°18'714.2
2017-Nov-12 22:31N 29°28' W 015°20'714.2
2017-Nov-12 22:01N 29°21' W 015°23'714.2
2017-Nov-12 21:30N 29°14' W 015°25'713.9
2017-Nov-12 21:00N 29°07' W 015°27'714.1
2017-Nov-12 20:30N 29°00' W 015°26'713.3
2017-Nov-12 20:00N 28°54' W 015°28'713.8
2017-Nov-12 19:30N 28°48' W 015°33'714.2
2017-Nov-12 19:00N 28°42' W 015°35'714.2
2017-Nov-12 18:30N 28°36' W 015°40'714.6
2017-Nov-12 18:00N 28°30' W 015°45'714.7
2017-Nov-12 17:30N 28°25' W 015°51'714.4
2017-Nov-12 17:00N 28°19' W 015°56'  

Dump ship's entire track history